Terminal Aerodrome Forecast
Issued by NWS

Home | Current Version | Previous Version | Graphics & Text | Print | Product List | Glossary On
Versions: 1 2 3 4 5 6 7 8 9 10 11 12 13
008
FTUS43 KICT 061725
TAFRSL
TAF
KRSL 061725Z 0618/0718 25012KT P6SM SKC
     FM070100 25008KT P6SM SCT200
     FM070900 30009KT P6SM FEW250
     FM071600 31017G25KT P6SM SCT200=

USA.gov is the U.S. government's official web portal to all federal, state and local government web resources and services.